CDT,Max TemperatureF,Mean TemperatureF,Min TemperatureF,Max Dew PointF,MeanDew PointF,Min DewpointF,Max Humidity, Mean Humidity, Min Humidity, Max Sea Level PressureIn, Mean Sea Level PressureIn, Min Sea Level PressureIn, Max VisibilityMiles, Mean VisibilityMiles, Min VisibilityMiles, Max Wind SpeedMPH, Mean Wind SpeedMPH, Max Gust SpeedMPH,PrecipitationIn, CloudCover, Events, WindDirDegrees
2014-3-1,-8,-12,-16,-18,-22,-26,70,64,57,30.70,30.62,30.46,10,9,2,15,9,20,0.00,2,,332
2014-3-2,3,-8,-19,-8,-18,-27,72,63,54,30.68,30.65,30.61,10,10,10,16,7,18,0.00,0,,285
2014-3-3,9,-1,-11,2,-3,-14,80,72,63,30.60,30.38,30.24,10,7,0,16,8,20,0.06,7,Snow,141
2014-3-4,14,9,3,3,1,-3,79,70,61,30.40,30.30,30.22,10,10,4,13,8,15,0.01,6,Snow,38
2014-3-5,22,11,-1,16,8,-5,83,71,59,30.44,30.32,30.12,10,8,4,30,15,40,0.00,6,,159
2014-3-6,35,26,16,30,22,10,89,82,74,30.10,29.83,29.68,5,3,2,32,20,43,0.00,6,Snow,163
2014-3-7,33,19,5,30,14,0,89,81,73,30.40,30.08,29.71,10,6,2,28,18,32,T,7,Snow,336
2014-3-8,27,16,4,20,10,-1,86,72,57,30.42,30.29,29.98,10,10,10,20,9,24,0.00,5,,204
2014-3-9,44,34,24,34,29,19,89,77,65,29.94,29.70,29.60,10,10,10,18,9,23,0.00,1,,201
2014-3-10,47,41,35,38,34,32,89,80,70,29.78,29.68,29.60,10,10,10,15,9,18,0.00,0,,272
2014-3-11,35,27,19,31,23,13,89,76,63,30.24,30.04,29.79,10,10,10,26,14,31,T,4,,358
2014-3-12,32,24,16,28,16,7,85,71,57,30.23,30.10,29.89,10,10,6,17,9,22,0.00,8,,140
2014-3-13,57,41,25,40,32,24,89,69,37,29.87,29.66,29.50,10,10,7,21,13,26,0.00,1,,228
2014-3-14,37,26,15,32,24,11,92,80,68,30.08,29.80,29.58,10,9,2,24,15,30,0.01,5,Snow,339
2014-3-15,22,14,6,9,6,1,76,64,52,30.58,30.34,30.09,10,10,10,23,14,28,0.00,0,,14
2014-3-16,31,17,2,22,9,-2,87,67,47,30.59,30.28,29.75,10,10,9,31,14,41,T,2,Snow,157
2014-3-17,42,35,28,31,26,22,82,71,60,29.72,29.57,29.50,10,10,10,20,10,25,0.00,6,,94
2014-3-18,34,32,29,28,26,24,92,82,72,29.98,29.85,29.68,10,7,3,18,13,22,0.00,7,,356
2014-3-19,43,33,22,29,23,19,92,71,49,30.01,29.97,29.94,10,10,6,17,8,21,0.00,6,,311
2014-3-20,46,34,21,33,27,19,100,81,62,29.98,29.91,29.75,10,4,0,20,8,26,0.01,6,Fog,137
2014-3-21,40,25,10,37,21,2,96,81,66,30.46,29.99,29.67,10,6,0,44,25,52,0.18,7,Fog-Rain-Snow,336
2014-3-22,19,14,8,9,4,-1,80,66,51,30.60,30.55,30.48,10,10,7,26,13,33,T,4,Snow,335
2014-3-23,28,17,5,13,5,0,83,61,38,30.58,30.49,30.38,10,10,7,17,6,23,T,4,Snow,325
2014-3-24,34,23,12,20,13,5,88,60,32,30.38,30.26,30.16,10,6,0,32,13,37,0.03,7,Snow,325
2014-3-25,29,17,4,11,4,-1,86,59,31,30.38,30.28,30.10,10,9,2,17,9,22,T,2,Snow,312
2014-3-26,44,31,17,26,17,9,74,59,43,30.09,29.76,29.53,10,10,9,26,15,35,0.00,2,Rain,122
2014-3-27,34,26,18,24,19,9,81,67,53,30.01,29.72,29.54,10,10,9,29,21,36,0.00,4,,5
2014-3-28,33,23,12,13,6,3,73,51,29,30.30,30.20,30.03,10,10,10,17,9,22,0.00,3,,17
2014-3-29,45,35,25,32,20,12,76,56,36,30.28,30.08,29.81,10,10,10,32,20,42,0.00,3,,160
2014-3-30,50,42,34,36,32,30,89,73,56,29.89,29.83,29.74,10,10,7,23,14,30,0.00,3,,42
2014-3-31,37,27,17,32,21,13,92,85,78,29.85,29.73,29.63,10,4,0,41,26,50,0.43,7,Fog-Snow,9